Tiempo atmosférico en la estación meteorológica de San Cristóbal de La Laguna,Llano de los Loros, Santa Cruz de Tenerife (868 m.)



Fecha
DESCASC
Temp. máxima en grados centígrados (hora)
DESCASC
Temp. mínima en grados centígrados (hora)
DESCASC
Temp. media en grados centígrados
DESCASC
Racha de viento máxima en m/sg (hora)
DESCASC
Velocidad máxima media en intervalos de 10 minutos(hora)
DESCASC
Precipitaciones diarias en mm
DESCASC
Precipitaciones de 00:00 a 06:00 en mm
DESCASC
Precipitaciones de 06:00 a 12:00 en mm
DESCASC
Precipitaciones de 12:00 a 18:00 en mm
DESCASC
Precipitaciones de 18:00 a 24:00 en mm
DESCASC
22-01-2020 16.4 (14:30) 5.8 (07:40) 11.1 9.72 (00:10) 5 (00:10) 0.4 0.2 0.2 0 0
21-01-2020 10.5 (12:00) 6.7 (19:10) 8.6 13.89 (05:00) 5.83 (18:00) 5.6 0.4 0.6 4.6 0
20-01-2020 11.8 (00:00) 8 (21:40) 9.9 18.06 (06:20) 9.44 (03:50) 7 3 1 0 3
19-01-2020 22.3 (13:10) 10 (00:00) 16.1 15 (00:10) 10.83 (01:20) 0.8 0 0 0 0.8
18-01-2020 19.3 (14:00) 9.4 (00:00) 14.3 14.72 (23:30) 10.28 (22:40) 0 0 0 0 0
17-01-2020 19 (12:30) 8.3 (00:00) 13.7 10.56 (08:40) 8.06 (10:50) 0 0 0 0 0
16-01-2020 19.4 (13:00) 6.6 (00:00) 13 6.39 (23:20) 3.89 (23:00) 0 0 0 0 0
15-01-2020 18 (12:00) 7.2 (00:00) 12.6 9.17 (13:30) 5.56 (12:30) 0 0 0 0 0
14-01-2020 16.8 (13:30) 6.8 (00:00) 11.8 11.39 (11:50) 5.56 (04:10) 0 0 0 0 0
13-01-2020 18.6 (12:20) 8.4 (00:00) 13.5 11.94 (04:00) 8.06 (00:20) 0 0 0 0 0
12-01-2020 16.3 (14:50) 8.6 (18:50) 12.4 10.83 (14:00) 7.5 (23:30) 0.2 0.2 0 0 0
11-01-2020 12.2 (14:40) 8.5 (00:00) 10.3 12.22 (13:20) 6.39 (08:20) 2.4 0.6 0.2 0 1.6
10-01-2020 12.2 (12:20) 10.3 (00:00) 11.3 15.28 (09:40) 5 (15:10) 19.8 3.4 9 4.2 3.2
09-01-2020 13.3 (11:30) 9.6 (00:00) 11.5 14.72 (22:10) 5.83 (16:30) 0 0 0 0 0
08-01-2020 16 (12:10) 9.5 (00:00) 12.8 10.56 (06:30) 4.72 (07:30) 1.8 0.4 1.4 0 0
07-01-2020 17 (15:50) 8.9 (00:00) 12.9 11.11 (10:50) 6.11 (14:20) 0.4 0.2 0.2 0 0
06-01-2020 12.9 (13:30) 9.1 (00:00) 11 13.89 (19:20) 6.39 (15:00) 5 0.6 0.6 0 3.8
05-01-2020 17.4 (12:50) 9.2 (00:00) 13.3 9.17 (01:20) 5 (01:00) 0 0 0 0 0
04-01-2020 18.3 (14:10) 8.5 (00:00) 13.4 12.78 (02:40) 8.33 (00:50) 0 0 0 0 0
03-01-2020 17.5 (12:40) 8.4 (00:00) 12.9 17.5 (06:10) 11.94 (06:30) 0 0 0 0 0
02-01-2020 17.5 (13:20) 8 (00:00) 12.8 12.22 (22:50) 8.33 (22:50) 0 0 0 0 0
01-01-2020 18.6 (12:50) 7.4 (00:00) 13 11.67 (11:30) 7.78 (23:59) 0 0 0 0 0
31-12-2019 21.8 (10:50) 9.3 (00:00) 15.5 13.33 (00:30) 8.89 (00:10) 0 0 0 0 0
30-12-2019 -- (--) -- (--) -- -- (--) -- (--) -- 0 0 -- 0
29-12-2019 23 (11:40) 12.1 (00:00) 17.6 15 (04:10) 10.28 (04:00) 0 0 0 0 0
28-12-2019 24.6 (12:30) 12.9 (00:00) 18.8 12.5 (11:00) 8.61 (11:10) 0 0 0 0 0
27-12-2019 24 (12:10) 11.3 (00:00) 17.7 10.83 (04:00) 8.06 (03:50) 0 0 0 0 0
26-12-2019 21.2 (13:30) 11.2 (00:00) 16.2 17.22 (10:50) 11.39 (11:00) 0 0 0 0 0
25-12-2019 21.4 (12:20) 13.4 (00:00) 17.4 11.94 (13:10) 6.94 (13:00) 0 0 0 0 0

Gráficas

Temp. máximas Temp. mínimas Temp. medias Precipitaciones Rachas de viento máximas Velocidades máximas media en intervalos de 10 minutos

Datos horarios

Fecha y hora oficial Temperatura (ºC) Velocidad del viento (km/h) Dirección del viento Racha (km/h) Dirección de racha Precipitación (mm) Presión (hPa) Tendencia (hPa) Humedad (%)
2020-01-23 22:00:00 8.5 17 Noroeste 27 Noroeste 0 -- -- 95
2020-01-23 21:00:00 8.5 12 Noroeste 23 Noroeste 0 -- -- 95
2020-01-23 20:00:00 8.3 6 Noroeste 14 Noroeste 0 -- -- 95
2020-01-23 19:00:00 9.1 5 Noroeste 13 Oeste 0 -- -- 91
2020-01-23 18:00:00 10.3 4 Noroeste 20 Oeste 0 -- -- 86
2020-01-23 17:00:00 13.8 6 Oeste 19 Sudoeste 0 -- -- 68
2020-01-23 16:00:00 14.5 7 Oeste 21 Oeste 0 -- -- 63
2020-01-23 15:00:00 15 6 Oeste 28 Oeste 0 -- -- 62
2020-01-23 14:00:00 14.2 9 Oeste 25 Noroeste 0 -- -- 68
2020-01-23 13:00:00 13.1 9 Noroeste 25 Oeste 0 -- -- 76
2020-01-23 12:00:00 13.4 8 Oeste 26 Oeste 0 -- -- 75
2020-01-23 11:00:00 12.7 10 Oeste 26 Noroeste 0 -- -- 81
2020-01-23 10:00:00 11.4 6 Norte 26 Oeste 0 -- -- 89
2020-01-23 09:00:00 10 11 Noroeste 28 Oeste 0 -- -- 96
2020-01-23 08:00:00 8.2 13 Noroeste 28 Noroeste 0 -- -- 100
2020-01-23 07:00:00 8.1 15 Noroeste 30 Noroeste 0 -- -- 99
2020-01-23 06:00:00 8 12 Noroeste 23 Oeste 0 -- -- 99
2020-01-23 05:00:00 8.2 7 Noroeste 31 Noroeste 0.2 -- -- 99
2020-01-23 04:00:00 7.8 9 Noroeste 26 Noroeste 0 -- -- 98
2020-01-23 03:00:00 7.8 10 Noroeste 23 Noroeste 0 -- -- 99
2020-01-23 02:00:00 7.9 12 Noroeste 24 Noroeste 0.4 -- -- 99
2020-01-23 01:00:00 7.8 10 Noroeste 22 Noroeste 0.2 -- -- 98
2020-01-23 00:00:00 8.4 8 Noroeste 19 Oeste 0 -- -- 93
2020-01-22 23:00:00 8.1 8 Noroeste 22 Norte 0 -- -- 94
2020-01-22 22:00:00 8 8 Noroeste 21 Noroeste 0 -- -- 95
2020-01-22 21:00:00 8.5 5 Noroeste 20 Noroeste 0 -- -- 94
2020-01-22 20:00:00 8.5 7 Noroeste 17 Oeste 0 -- -- 94
2020-01-22 19:00:00 8.7 4 Noroeste 17 Oeste 0 -- -- 91
2020-01-22 18:00:00 10.2 7 Noroeste 18 Oeste 0 -- -- 80
2020-01-22 17:00:00 11.4 5 Oeste 16 Sudoeste 0 -- -- 77
2020-01-22 16:00:00 12 7 Noroeste 24 Oeste 0 -- -- 77
2020-01-22 15:00:00 15.6 5 Sur 17 Sudeste 0 -- -- 65
2020-01-22 14:00:00 11.9 3 Sudoeste 13 Sur 0 -- -- 79
2020-01-22 13:00:00 12.8 4 Sudeste 13 Sur 0 -- -- 73
2020-01-22 12:00:00 12.7 3 Oeste 12 Norte 0 -- -- 71
2020-01-22 11:00:00 12.7 5 Noroeste 15 Oeste 0 -- -- 61
2020-01-22 10:00:00 11.1 6 Noroeste 11 Noroeste 0 -- -- 78
2020-01-22 09:00:00 8.9 5 Norte 15 Norte 0 -- -- 90
2020-01-22 08:00:00 6.4 8 Norte 21 Noroeste 0.2 -- -- 100
2020-01-22 07:00:00 7.2 17 Noroeste 23 Noroeste 0 -- -- 99
2020-01-22 06:00:00 7.1 16 Noroeste 24 Noroeste 0 -- -- 100
2020-01-22 05:00:00 7 13 Noroeste 21 Noroeste 0 -- -- 100
2020-01-22 04:00:00 7.1 14 Noroeste 26 Noroeste 0 -- -- 100
2020-01-22 03:00:00 7.3 16 Noroeste 29 Noroeste 0 -- -- 100
2020-01-22 02:00:00 7.2 15 Noroeste 29 Oeste 0 -- -- 100
2020-01-22 01:00:00 7.2 13 Noroeste 35 Noroeste 0.2 -- -- 100
2020-01-22 00:00:00 7.1 14 Noroeste 35 Norte 0 -- -- 100
2020-01-21 23:00:00 7.6 17 Noroeste 35 Noroeste 0 -- -- 100
2020-01-21 22:00:00 7.6 6 Norte 29 Noroeste 0 -- -- 100
2020-01-21 21:00:00 7.4 14 Noroeste 28 Noroeste 0 -- -- 100
2020-01-21 20:00:00 7 11 Noroeste 31 Norte 0 -- -- 99
2020-01-21 19:00:00 6.9 15 Noroeste 34 Noroeste 0 -- -- 99
2020-01-21 18:00:00 6.8 21 Noroeste 37 Noroeste 0.2 -- -- 99
2020-01-21 17:00:00 7.2 18 Norte 31 Noroeste 1.2 -- -- 99
2020-01-21 16:00:00 7.5 13 Noroeste 27 Noroeste 1.2 -- -- 98
2020-01-21 15:00:00 8.1 10 Noroeste 23 Norte 1 -- -- 96
2020-01-21 14:00:00 9.1 7 Noroeste 24 Nordeste 0.2 -- -- 96
2020-01-21 13:00:00 8.8 7 Noroeste 24 Noroeste 0.8 -- -- 96
2020-01-21 12:00:00 10.5 6 Noroeste 28 Nordeste 0 -- -- 84
2020-01-21 11:00:00 8.7 6 Noroeste 17 Noroeste 0 -- -- 91
2020-01-21 10:00:00 7.9 4 Norte 25 Noroeste 0.2 -- -- 96
2020-01-21 09:00:00 7.6 10 Noroeste 28 Noroeste 0.4 -- -- 92
2020-01-21 08:00:00 7.1 8 Noroeste 36 Noroeste 0 -- -- 93
2020-01-21 07:00:00 8 17 Noroeste 33 Norte 0 -- -- 86
2020-01-21 06:00:00 8 17 Noroeste 45 Noroeste 0 -- -- 85
2020-01-21 05:00:00 7.5 18 Noroeste 50 Noroeste 0 -- -- 84
2020-01-21 04:00:00 7.7 15 Noroeste 34 Oeste 0 -- -- 94
2020-01-21 03:00:00 7.5 7 Oeste 28 Norte 0 -- -- 97
2020-01-21 02:00:00 7.3 9 Norte 32 Noroeste 0 -- -- 98
2020-01-21 01:00:00 7.7 8 Norte 36 Oeste 0.4 -- -- 99
2020-01-21 00:00:00 8.5 8 Sur 37 Noroeste 2 -- -- 99
2020-01-20 23:00:00 8.5 11 Norte 37 Norte 0.8 -- -- 99
2020-01-20 22:00:00 8.2 13 Norte 47 Noroeste 0.2 -- -- 95
2020-01-20 21:00:00 9.1 22 Noroeste 45 Noroeste 0 -- -- 89
2020-01-20 20:00:00 9 13 Norte 43 Noroeste 0 -- -- 87
2020-01-20 19:00:00 9 15 Noroeste 47 Noroeste 0 -- -- 94
2020-01-20 18:00:00 9.2 18 Noroeste 48 Noroeste 0 -- -- 89
2020-01-20 17:00:00 9.7 22 Noroeste 58 Noroeste 0 -- -- 92
2020-01-20 16:00:00 10.1 22 Noroeste 59 Noroeste 0 -- -- 92
2020-01-20 15:00:00 10.7 26 Noroeste 52 Noroeste 0 -- -- 86
2020-01-20 14:00:00 11.1 30 Noroeste 56 Noroeste 0 -- -- 86
2020-01-20 13:00:00 11 24 Noroeste 55 Noroeste 0 -- -- 90
2020-01-20 12:00:00 10.2 32 Noroeste 57 Noroeste 0 -- -- 93
2020-01-20 11:00:00 9.1 33 Noroeste 51 Noroeste 0.4 -- -- 100
2020-01-20 10:00:00 8.8 21 Noroeste 50 Noroeste 0.2 -- -- 99
2020-01-20 09:00:00 8.5 19 Noroeste 48 Noroeste 0.4 -- -- 99
2020-01-20 08:00:00 8.2 24 Noroeste 50 Noroeste 0 -- -- 95
2020-01-20 07:00:00 8.6 22 Noroeste 65 Noroeste 0 -- -- 99
2020-01-20 06:00:00 8.2 34 Noroeste 61 Noroeste 0 -- -- 100
2020-01-20 05:00:00 8.9 26 Noroeste 60 Noroeste 0 -- -- 100
2020-01-20 04:00:00 9.7 31 Noroeste 58 Noroeste 0 -- -- 100
2020-01-20 03:00:00 10.4 25 Noroeste 51 Norte 0 -- -- 100
2020-01-20 02:00:00 10.1 13 Noroeste 51 Norte 0.4 -- -- 100
2020-01-20 01:00:00 11.3 19 Norte 37 Nordeste 2.6 -- -- 99
2020-01-20 00:00:00 11.8 10 Norte 31 Noroeste 0.8 -- -- 99
2020-01-19 23:00:00 11.4 9 Noroeste 30 Este 0 -- -- 98
2020-01-19 22:00:00 11.1 8 Norte 27 Nordeste 0 -- -- 95
2020-01-19 21:00:00 10.4 6 Nordeste 17 Norte 0 -- -- 93
2020-01-19 20:00:00 10.3 4 Noroeste 19 Sudeste 0 -- -- 84
2020-01-19 19:00:00 10.7 7 Sudeste 17 Este 0 -- -- 67
2020-01-19 18:00:00 12.5 9 Este 14 Este 0 -- -- 59
2020-01-19 17:00:00 16.2 5 Sudeste 12 Sur 0 -- -- 62
2020-01-19 16:00:00 18.1 9 Sudeste 17 Sudeste 0 -- -- 58
2020-01-19 15:00:00 19.7 8 Sudeste 17 Sur 0 -- -- 52
2020-01-19 14:00:00 21.3 10 Sur 19 Sudeste 0 -- -- 45
2020-01-19 13:00:00 21.8 13 Sudeste 22 Sudeste 0 -- -- 45
2020-01-19 12:00:00 21.8 16 Sudeste 30 Sudeste 0 -- -- 47
2020-01-19 11:00:00 20.6 22 Sudeste 31 Sudeste 0 -- -- 44
2020-01-19 10:00:00 19.2 23 Sudeste 38 Sudeste 0 -- -- 35
2020-01-19 09:00:00 15.5 22 Sudeste 35 Este 0 -- -- 36
2020-01-19 08:00:00 11.5 24 Sudeste 39 Sudeste 0 -- -- 38
2020-01-19 07:00:00 11.2 25 Sudeste 45 Sudeste 0 -- -- 41
2020-01-19 06:00:00 10.9 24 Sudeste 49 Sudeste 0 -- -- 40
2020-01-19 05:00:00 11.5 32 Sudeste 48 Este 0 -- -- 38
2020-01-19 04:00:00 11.1 32 Sudeste 48 Sudeste 0 -- -- 44
2020-01-19 03:00:00 10.9 31 Sudeste 49 Este 0 -- -- 52
2020-01-19 02:00:00 10.8 35 Sudeste 51 Sudeste 0 -- -- 53
2020-01-19 01:00:00 11.1 34 Sudeste 54 Sudeste 0 -- -- 46
2020-01-19 00:00:00 11.3 32 Este 53 Este 0 -- -- 38
2020-01-18 23:00:00 11 35 Sudeste 52 Este 0 -- -- 53
2020-01-18 22:00:00 11 33 Sudeste 48 Este 0 -- -- 53
2020-01-18 21:00:00 11.3 29 Sudeste 44 Sudeste 0 -- -- 42
2020-01-18 20:00:00 10.8 28 Sudeste 39 Sudeste 0 -- -- 45
2020-01-18 19:00:00 10.3 18 Sudeste 32 Sudeste 0 -- -- 56
2020-01-18 18:00:00 11 18 Sudeste 27 Sudeste 0 -- -- 64
2020-01-18 17:00:00 14.4 15 Sudeste 23 Sur 0 -- -- 56
2020-01-18 16:00:00 16.2 15 Sur 32 Sudeste 0 -- -- 53
2020-01-18 15:00:00 18.2 17 Sudeste 29 Sudeste 0 -- -- 44
2020-01-18 14:00:00 19.3 16 Sudeste 31 Sur 0 -- -- 41
2020-01-18 13:00:00 18.7 22 Sudeste 41 Sudeste 0 -- -- 41
2020-01-18 12:00:00 18.9 25 Sudeste 42 Sudeste 0 -- -- 51
2020-01-18 11:00:00 18.4 28 Sudeste 45 Sudeste 0 -- -- 58
2020-01-18 10:00:00 16.2 34 Sudeste 43 Sudeste 0 -- -- 74
2020-01-18 09:00:00 13.4 32 Sudeste 40 Sudeste 0 -- -- 81
2020-01-18 08:00:00 9.5 25 Sudeste 36 Este 0 -- -- 89
2020-01-18 07:00:00 9.6 24 Sudeste 37 Sudeste 0 -- -- 69
2020-01-18 06:00:00 10 23 Sudeste 35 Este 0 -- -- 55
2020-01-18 05:00:00 9.9 26 Sudeste 34 Este 0 -- -- 56
2020-01-18 04:00:00 9.8 23 Sudeste 34 Este 0 -- -- 56
2020-01-18 03:00:00 10.7 25 Este 33 Este 0 -- -- 38
2020-01-18 02:00:00 11.9 25 Este 37 Este 0 -- -- 25
2020-01-18 01:00:00 11.7 24 Este 35 Este 0 -- -- 23
2020-01-18 00:00:00 11.2 23 Este 30 Sudeste 0 -- -- 30
2020-01-17 23:00:00 10 13 Este 20 Este 0 -- -- 43
2020-01-17 22:00:00 10.3 11 Este 19 Este 0 -- -- 35
2020-01-17 21:00:00 10.4 11 Este 21 Este 0 -- -- 34
2020-01-17 20:00:00 10.2 12 Este 22 Este 0 -- -- 44
2020-01-17 19:00:00 9.6 13 Este 17 Este 0 -- -- 51
2020-01-17 18:00:00 10.5 4 Sudeste 7 Sur 0 -- -- 59
2020-01-17 17:00:00 15.5 6 Sur 14 Sudeste 0 -- -- 48
2020-01-17 16:00:00 16.2 10 Sudeste 16 Sudeste 0 -- -- 47
2020-01-17 15:00:00 17.8 8 Sudeste 21 Sudeste 0 -- -- 40
2020-01-17 14:00:00 18.4 14 Sur 26 Sudeste 0 -- -- 47
2020-01-17 13:00:00 18.2 20 Sur 32 Sudeste 0 -- -- 48
2020-01-17 12:00:00 18.2 21 Sur 36 Sudeste 0 -- -- 50
2020-01-17 11:00:00 17.2 28 Sudeste 38 Sur 0 -- -- 58
2020-01-17 10:00:00 15.7 27 Sudeste 38 Sudeste 0 -- -- 63
2020-01-17 09:00:00 12.8 27 Sudeste 38 Sudeste 0 -- -- 76
2020-01-17 08:00:00 8.5 25 Sudeste 36 Sudeste 0 -- -- 95
2020-01-17 07:00:00 8.5 23 Sudeste 34 Este 0 -- -- 91
2020-01-17 06:00:00 8.6 25 Sudeste 37 Sudeste 0 -- -- 88
2020-01-17 05:00:00 8.3 21 Sudeste 29 Sudeste 0 -- -- 90
2020-01-17 04:00:00 8.7 22 Sudeste 32 Sudeste 0 -- -- 90
2020-01-17 03:00:00 8.9 21 Sudeste 31 Sudeste 0 -- -- 79
2020-01-17 02:00:00 8.9 22 Sudeste 33 Sudeste 0 -- -- 55
2020-01-17 01:00:00 9.3 21 Sudeste 28 Sudeste 0 -- -- 49
2020-01-17 00:00:00 9 12 Sudeste 23 Sudeste 0 -- -- 48
2020-01-16 23:00:00 9 14 Sudeste 22 Este 0 -- -- 43
2020-01-16 22:00:00 7.5 10 Este 17 Este 0 -- -- 62
2020-01-16 21:00:00 7.8 8 Este 13 Este 0 -- -- 61
2020-01-16 20:00:00 7.6 4 Nordeste 9 Este 0 -- -- 62
2020-01-16 19:00:00 8.4 3 Este 5 Nordeste 0 -- -- 84
2020-01-16 18:00:00 10.8 3 Sudeste 6 Sur 0 -- -- 70
2020-01-16 17:00:00 15.4 5 Sudeste 12 Sur 0 -- -- 50
2020-01-16 16:00:00 17.2 7 Sudeste 16 Sudoeste 0 -- -- 44
2020-01-16 15:00:00 17.3 6 Sudoeste 17 Sur 0 -- -- 37
2020-01-16 14:00:00 19.2 12 Sudeste 20 Sur 0 -- -- 41
2020-01-16 13:00:00 19.4 11 Sur 19 Sur 0 -- -- 46
2020-01-16 12:00:00 18.3 8 Sur 17 Sur 0 -- -- 40
2020-01-16 11:00:00 18.5 10 Sudeste 17 Sudeste 0 -- -- 44
2020-01-16 10:00:00 15.5 6 Sur 11 Sur 0 -- -- 50
2020-01-16 09:00:00 11 3 Oeste 8 Sur 0 -- -- 58
2020-01-16 08:00:00 8 3 Sudeste 12 Sudeste 0 -- -- 68
2020-01-16 07:00:00 7.5 6 Este 12 Sudeste 0 -- -- 73
2020-01-16 06:00:00 7.8 6 Sur 9 Sur 0 -- -- 65
2020-01-16 05:00:00 8.3 5 Oeste 9 Sudoeste 0 -- -- 53
2020-01-16 04:00:00 8 5 Oeste 10 Sur 0 -- -- 61
2020-01-16 03:00:00 7.5 3 Oeste 15 Sur 0 -- -- 68
2020-01-16 02:00:00 6.6 0 Calma 9 Sur 0 -- -- 68
2020-01-16 01:00:00 7.6 4 Oeste 10 Oeste 0 -- -- 61
2020-01-16 00:00:00 7.2 2 Noroeste 17 Sur 0 -- -- 65
2020-01-15 23:00:00 8.3 7 Sur 17 Sur 0 -- -- 68
2020-01-15 22:00:00 7.9 4 Sur 11 Sudeste 0 -- -- 92
2020-01-15 21:00:00 8.3 8 Sur 12 Sudeste 0 -- -- 92
2020-01-15 20:00:00 9 9 Sudeste 14 Sudeste 0 -- -- 90
2020-01-15 19:00:00 8.9 9 Sur 15 Sudeste 0 -- -- 84
2020-01-15 18:00:00 10.3 10 Sur 17 Sudeste 0 -- -- 73
2020-01-15 17:00:00 14 9 Sudeste 17 Sudeste 0 -- -- 55
2020-01-15 16:00:00 15.8 10 Sudeste 19 Sudeste 0 -- -- 49
2020-01-15 15:00:00 17.4 10 Sur 23 Sudeste 0 -- -- 37
2020-01-15 14:00:00 17 16 Sudeste 33 Sudeste 0 -- -- 37
2020-01-15 13:00:00 17.3 15 Sur 33 Sudeste 0 -- -- 47
2020-01-15 12:00:00 18 17 Sur 30 Sudeste 0 -- -- 46
2020-01-15 11:00:00 17.7 16 Sur 25 Sudeste 0 -- -- 45
2020-01-15 10:00:00 15.9 14 Sudeste 21 Sudeste 0 -- -- 43
2020-01-15 09:00:00 11.3 10 Sur 16 Sur 0 -- -- 50
2020-01-15 08:00:00 7.9 6 Sur 19 Sur 0 -- -- 54
2020-01-15 07:00:00 8.1 6 Sur 21 Sudeste 0 -- -- 53
2020-01-15 06:00:00 7.9 5 Sudoeste 22 Sur 0 -- -- 51
2020-01-15 05:00:00 8.1 3 Sur 23 Sur 0 -- -- 48
2020-01-15 04:00:00 8.3 11 Sur 19 Sudeste 0 -- -- 48
2020-01-15 03:00:00 8.3 9 Sur 21 Sudeste 0 -- -- 54
2020-01-15 02:00:00 7.8 11 Sur 21 Sudeste 0 -- -- 62
2020-01-15 01:00:00 8.2 9 Sur 20 Sudeste 0 -- -- 61
2020-01-15 00:00:00 8.5 8 Sudeste 19 Sur 0 -- -- 56
2020-01-14 23:00:00 7.8 3 Sudoeste 14 Sur 0 -- -- 64
2020-01-14 22:00:00 6.8 0 Calma 7 Sur 0 -- -- 79
2020-01-14 21:00:00 8.3 2 Sur 21 Sur 0 -- -- 95
2020-01-14 20:00:00 8.9 10 Sudeste 18 Sudeste 0 -- -- 95
2020-01-14 19:00:00 9.4 6 Sudeste 20 Sur 0 -- -- 93
2020-01-14 18:00:00 11.2 10 Sur 24 Sudeste 0 -- -- 89
2020-01-14 17:00:00 13.8 14 Sur 27 Sur 0 -- -- 73
2020-01-14 16:00:00 15.4 12 Sur 28 Sur 0 -- -- 58
2020-01-14 15:00:00 16.2 15 Sur 34 Sudeste 0 -- -- 59
2020-01-14 14:00:00 16.7 14 Sur 39 Sudeste 0 -- -- 61
2020-01-14 13:00:00 16.3 18 Sur 35 Sur 0 -- -- 71
2020-01-14 12:00:00 14.5 15 Sur 41 Sur 0 -- -- 84
2020-01-14 11:00:00 12.1 12 Sur 36 Sudeste 0 -- -- 90
2020-01-14 10:00:00 11.8 15 Sur 37 Sur 0 -- -- 89
2020-01-14 09:00:00 12.6 15 Sur 32 Sur 0 -- -- 66
2020-01-14 08:00:00 8.8 8 Sur 24 Sur 0 -- -- 66
2020-01-14 07:00:00 8.9 12 Sur 31 Sur 0 -- -- 61
2020-01-14 06:00:00 9.3 14 Sur 28 Sur 0 -- -- 67
2020-01-14 05:00:00 9.1 18 Sur 30 Sur 0 -- -- 83
2020-01-14 04:00:00 9.5 19 Sur 27 Sudeste 0 -- -- 88
2020-01-14 03:00:00 10.3 12 Sur 36 Sur 0 -- -- 48
2020-01-14 02:00:00 9.8 11 Sur 30 Sur 0 -- -- 67
2020-01-14 01:00:00 9.1 10 Sur 25 Sur 0 -- -- 74
2020-01-14 00:00:00 9.1 12 Sur 27 Sudeste 0 -- -- 88
2020-01-13 23:00:00 9.2 15 Sur 22 Sur 0 -- -- 90
2020-01-13 22:00:00 9.5 10 Sudeste 19 Sur 0 -- -- 96
2020-01-13 21:00:00 9.1 10 Sur 21 Sur 0 -- -- 86
2020-01-13 20:00:00 10.9 13 Sudeste 24 Sudeste 0 -- -- 97
2020-01-13 19:00:00 11.2 12 Sudeste 17 Sudeste 0 -- -- 96
2020-01-13 18:00:00 10.5 9 Sur 20 Sur 0 -- -- 81
2020-01-13 17:00:00 14.9 9 Sur 21 Sur 0 -- -- 77
2020-01-13 16:00:00 15.7 13 Sudeste 24 Sur 0 -- -- 74
2020-01-13 15:00:00 17 13 Sur 33 Sudeste 0 -- -- 68
2020-01-13 14:00:00 17.7 18 Sur 27 Sur 0 -- -- 58
2020-01-13 13:00:00 18 14 Sudeste 24 Sur 0 -- -- 71
2020-01-13 12:00:00 17.9 15 Sur 25 Sudeste -- -- -- 75
2020-01-13 11:00:00 16.7 17 Sudeste 24 Sur 0 -- -- 83
2020-01-13 10:00:00 12.2 16 Sudeste 25 Este 0 -- -- 98
2020-01-13 09:00:00 10.5 16 Sudeste 25 Este 0 -- -- 100
2020-01-13 08:00:00 9.5 20 Sudeste 30 Sudeste 0 -- -- 100
2020-01-13 07:00:00 9.4 21 Sudeste 33 Sudeste 0 -- -- 100
2020-01-13 06:00:00 9.4 22 Sudeste 32 Sudeste 0 -- -- 100
2020-01-13 05:00:00 9 24 Sudeste 40 Sudeste 0 -- -- 100
2020-01-13 04:00:00 9.2 28 Sudeste 43 Sudeste 0 -- -- 100
2020-01-13 03:00:00 8.8 22 Sudeste 35 Sudeste 0 -- -- 100
2020-01-13 02:00:00 8.6 26 Sudeste 37 Sudeste 0 -- -- 100
2020-01-13 01:00:00 9.1 25 Sudeste 39 Sudeste 0 -- -- 100
2020-01-13 00:00:00 8.8 25 Sudeste 37 Sudeste 0 -- -- 100
2020-01-12 23:00:00 8.9 25 Sudeste 38 Sudeste 0 -- -- 99
2020-01-12 22:00:00 8.7 24 Sudeste 33 Sudeste 0 -- -- 98
2020-01-12 21:00:00 9 25 Sudeste 34 Este 0 -- -- 95
2020-01-12 20:00:00 9.3 14 Sudeste 24 Sudeste 0 -- -- 95
2020-01-12 19:00:00 8.8 14 Este 22 Este 0 -- -- 94
2020-01-12 18:00:00 10.8 12 Sudeste 24 Sur 0 -- -- 91
2020-01-12 17:00:00 12.9 7 Sur 20 Sudeste 0 -- -- 88
2020-01-12 16:00:00 12.9 6 Sudeste 17 Sudeste 0 -- -- 86
2020-01-12 15:00:00 16.1 9 Sur 27 Sur 0 -- -- 76
2020-01-12 14:00:00 14.3 21 Sudeste 39 Este 0 -- -- 79
2020-01-12 13:00:00 11.7 14 Sudeste 35 Sudeste 0 -- -- 90
2020-01-12 12:00:00 12 14 Sudeste 27 Sudeste 0 -- -- 89
2020-01-12 11:00:00 10.9 14 Este 30 Sudeste 0 -- -- 94
2020-01-12 10:00:00 10.8 5 Sudeste 31 Este 0 -- -- 98
2020-01-12 09:00:00 9.4 6 Este 31 Este 0 -- -- 97
2020-01-12 08:00:00 9.4 6 Este 32 Nordeste 0 -- -- 99
2020-01-12 07:00:00 9.6 9 Este 30 Nordeste 0 -- -- 100
2020-01-12 06:00:00 9.4 10 Nordeste 30 Este 0 -- -- 99
2020-01-12 05:00:00 9.3 6 Nordeste 24 Sudeste 0 -- -- 99
2020-01-12 04:00:00 9.4 9 Norte 22 Noroeste 0 -- -- 100
2020-01-12 03:00:00 9.2 6 Noroeste 21 Norte 0 -- -- 99
2020-01-12 02:00:00 9.1 7 Norte 26 Noroeste 0 -- -- 99
2020-01-12 01:00:00 9.3 6 Norte 29 Nordeste 0.2 -- -- 100
2020-01-12 00:00:00 9.1 4 Norte 24 Noroeste 0.2 -- -- 100
2020-01-11 23:00:00 9.4 5 Sur 26 Noroeste 0.4 -- -- 100
2020-01-11 22:00:00 9 13 Norte 36 Noroeste 0.4 -- -- 100
2020-01-11 21:00:00 9.3 9 Noroeste 38 Oeste 0.4 -- -- 100
2020-01-11 20:00:00 9 10 Noroeste 36 Norte 0.2 -- -- 99
2020-01-11 19:00:00 9.3 9 Noroeste 32 Este 0 -- -- 96
2020-01-11 18:00:00 9.6 10 Noroeste 38 Noroeste 0 -- -- 99
2020-01-11 17:00:00 9.9 16 Noroeste 36 Noroeste 0 -- -- 98
2020-01-11 16:00:00 10.7 15 Noroeste 37 Norte 0 -- -- 94
2020-01-11 15:00:00 11.7 13 Noroeste 33 Oeste 0 -- -- 87
2020-01-11 14:00:00 10.7 11 Noroeste 44 Noroeste 0 -- -- 93
2020-01-11 13:00:00 10.6 9 Noroeste 36 Oeste 0 -- -- 94
2020-01-11 12:00:00 10.4 9 Noroeste 30 Noroeste 0.2 -- -- 95
2020-01-11 11:00:00 10.8 11 Noroeste 37 Noroeste 0 -- -- 94
2020-01-11 10:00:00 11.4 7 Noroeste 40 Noroeste 0 -- -- 86
2020-01-11 09:00:00 9.6 13 Noroeste 43 Norte 0 -- -- 96
2020-01-11 08:00:00 8.8 19 Noroeste 35 Noroeste 0 -- -- 98
2020-01-11 07:00:00 8.5 7 Oeste 39 Norte 0 -- -- 99
2020-01-11 06:00:00 9.2 13 Norte 42 Noroeste 0 -- -- 100
2020-01-11 05:00:00 8.8 16 Norte 41 Noroeste 0 -- -- 100
2020-01-11 04:00:00 9.7 8 Norte 36 Nordeste 0 -- -- 100
2020-01-11 03:00:00 9.8 12 Nordeste 33 Nordeste 0 -- -- 100
2020-01-11 02:00:00 10.3 12 Nordeste 40 Este 0 -- -- 100
2020-01-11 01:00:00 10.9 12 Nordeste 42 Nordeste 0.6 -- -- 100
2020-01-11 00:00:00 11.2 11 Nordeste 31 Nordeste 0.4 -- -- 100
2020-01-10 23:00:00 11.3 11 Nordeste 35 Nordeste 0.8 -- -- 100
2020-01-10 22:00:00 11.2 10 Nordeste 37 Este 1 -- -- 100
2020-01-10 21:00:00 11.4 9 Nordeste 30 Este 0.4 -- -- 100
2020-01-10 20:00:00 10.8 11 Nordeste 32 Nordeste 0 -- -- 100
2020-01-10 19:00:00 10.8 13 Nordeste 40 Nordeste 0.6 -- -- 100
2020-01-10 18:00:00 11.1 9 Nordeste 38 Este 0.2 -- -- 100
2020-01-10 17:00:00 11.1 16 Este 42 Este 0.4 -- -- 99
2020-01-10 16:00:00 11.9 12 Nordeste 44 Este 0 -- -- 98
2020-01-10 15:00:00 11.5 14 Nordeste 35 Este 0.2 -- -- 100
2020-01-10 14:00:00 11.9 13 Nordeste 31 Nordeste 0.4 -- -- 100
2020-01-10 13:00:00 11.4 15 Nordeste 37 Norte 3 -- -- 100
2020-01-10 12:00:00 11.6 11 Nordeste 33 Nordeste 2.6 -- -- 100
2020-01-10 11:00:00 11.5 12 Nordeste 41 Este 0.4 -- -- 100
2020-01-10 10:00:00 11.2 15 Este 55 Nordeste 0.6 -- -- 100
2020-01-10 09:00:00 11.2 12 Nordeste 33 Nordeste 2.2 -- -- 100
2020-01-10 08:00:00 11.3 14 Nordeste 36 Este 2.2 -- -- 100
2020-01-10 07:00:00 11.1 12 Nordeste 42 Este 1 -- -- 100
2020-01-10 06:00:00 10.7 13 Nordeste 33 Nordeste 0.8 -- -- 100
2020-01-10 05:00:00 10.7 8 Nordeste 37 Norte 0 -- -- 100
2020-01-10 04:00:00 10.6 17 Norte 39 Nordeste 1 -- -- 99
2020-01-10 03:00:00 10.3 17 Norte 35 Nordeste 1.4 -- -- 99
2020-01-10 02:00:00 10.6 8 Norte 33 Nordeste 0.2 -- -- 98
2020-01-10 01:00:00 10.6 11 Norte 37 Noroeste 0 -- -- 95
2020-01-10 00:00:00 10.3 11 Norte 36 Oeste 0 -- -- 91
2020-01-09 23:00:00 10 12 Norte 53 Norte 0 -- -- 90
2020-01-09 22:00:00 10 18 Norte 46 Norte 0 -- -- 91
2020-01-09 21:00:00 10.2 15 Noroeste 40 Oeste 0 -- -- 92
2020-01-09 20:00:00 10.2 12 Noroeste 39 Oeste 0 -- -- 93
2020-01-09 19:00:00 10.2 14 Noroeste 39 Noroeste 0 -- -- 91
2020-01-09 18:00:00 10.5 15 Noroeste 40 Noroeste 0 -- -- 93
2020-01-09 17:00:00 11.9 16 Noroeste 45 Oeste 0 -- -- 85
2020-01-09 16:00:00 12.3 16 Noroeste 44 Norte 0 -- -- 83
2020-01-09 15:00:00 12.3 15 Noroeste 50 Norte 0 -- -- 85
2020-01-09 14:00:00 12.4 11 Noroeste 33 Norte 0 -- -- 83
2020-01-09 13:00:00 12 9 Oeste 32 Noroeste 0 -- -- 83
2020-01-09 12:00:00 12.7 9 Noroeste 30 Oeste 0 -- -- 76
2020-01-09 11:00:00 10.6 10 Norte 33 Noroeste 0 -- -- 91
2020-01-09 10:00:00 11.2 11 Noroeste 32 Noroeste 0 -- -- 82
2020-01-09 09:00:00 9.7 6 Norte 25 Norte 0 -- -- 95
2020-01-09 08:00:00 9.9 6 Norte 25 Norte 0 -- -- 96
2020-01-09 07:00:00 9.7 6 Norte 27 Este 0 -- -- 94
2020-01-09 06:00:00 9.8 9 Norte 27 Nordeste 0 -- -- 96
2020-01-09 05:00:00 9.9 6 Norte 27 Nordeste 0 -- -- 97
2020-01-09 04:00:00 9.8 9 Nordeste 29 Este 0 -- -- 95
2020-01-09 03:00:00 10.1 8 Nordeste 27 Nordeste 0 -- -- 95
2020-01-09 02:00:00 9.8 11 Nordeste 32 Norte 0 -- -- 93
2020-01-09 01:00:00 9.9 9 Norte 28 Nordeste 0 -- -- 91
2020-01-09 00:00:00 10.1 10 Norte 31 Norte 0 -- -- 93
2020-01-08 23:00:00 10.1 8 Noroeste 27 Noroeste 0 -- -- 94
2020-01-08 22:00:00 10 10 Noroeste 27 Oeste 0 -- -- 93
2020-01-08 21:00:00 9.9 10 Noroeste 32 Noroeste 0 -- -- 93
2020-01-08 20:00:00 10 6 Oeste 27 Oeste 0 -- -- 91
2020-01-08 19:00:00 10 6 Noroeste 23 Noroeste 0 -- -- 91
2020-01-08 18:00:00 11.5 8 Norte 24 Noroeste 0 -- -- 84
2020-01-08 17:00:00 11 6 Norte 17 Norte 0 -- -- 87
2020-01-08 16:00:00 11.4 4 Sudeste 27 Este 0 -- -- 86
2020-01-08 15:00:00 11.6 5 Norte 32 Este 0 -- -- 86
2020-01-08 14:00:00 12.1 12 Este 27 Este 0 -- -- 82
2020-01-08 13:00:00 13.4 10 Nordeste 29 Este 0 -- -- 78
2020-01-08 12:00:00 15.6 9 Este 25 Este 0 -- -- 73
2020-01-08 11:00:00 15.1 13 Este 37 Este 0 -- -- 77
2020-01-08 10:00:00 10.2 9 Este 28 Nordeste 0 -- -- 94
2020-01-08 09:00:00 9.9 14 Este 35 Nordeste 0 -- -- 97
2020-01-08 08:00:00 9.6 14 Nordeste 36 Nordeste 0 -- -- 97
2020-01-08 07:00:00 9.8 9 Este 38 Nordeste 1.4 -- -- 99
2020-01-08 06:00:00 9.9 9 Nordeste 26 Nordeste 0.2 -- -- 97
2020-01-08 05:00:00 9.9 8 Nordeste 25 Norte 0.2 -- -- 96
2020-01-08 04:00:00 9.7 10 Norte 31 Nordeste 0 -- -- 95
2020-01-08 03:00:00 9.7 9 Norte 21 Norte 0 -- -- 96
2020-01-08 02:00:00 9.7 10 Norte 24 Norte 0 -- -- 92
2020-01-08 01:00:00 9.7 13 Nordeste 31 Nordeste 0 -- -- 93
2020-01-08 00:00:00 10 6 Nordeste 25 Nordeste 0 -- -- 93
2020-01-07 23:00:00 10.2 9 Nordeste 28 Este 0 -- -- 91
2020-01-07 22:00:00 9.9 8 Nordeste 28 Nordeste 0 -- -- 90
2020-01-07 21:00:00 10.1 11 Este 27 Nordeste 0 -- -- 90
2020-01-07 20:00:00 10 15 Nordeste 27 Nordeste 0 -- -- 90
2020-01-07 19:00:00 9.6 7 Nordeste 24 Nordeste 0 -- -- 83
2020-01-07 18:00:00 10.2 12 Este 23 Nordeste 0 -- -- 88
2020-01-07 17:00:00 11.3 10 Este 24 Este 0 -- -- 85
2020-01-07 16:00:00 16.3 13 Sudeste 26 Este 0 -- -- 67
2020-01-07 15:00:00 16.6 11 Sur 38 Sudeste 0 -- -- 64
2020-01-07 14:00:00 15.1 17 Sudeste 39 Sudeste 0 -- -- 75
2020-01-07 13:00:00 14 12 Sudeste 40 Sudeste 0 -- -- 80
2020-01-07 12:00:00 14.5 16 Sudeste 33 Sudeste 0 -- -- 78
2020-01-07 11:00:00 13.3 18 Sudeste 40 Sudeste 0 -- -- 83
2020-01-07 10:00:00 10 16 Sudeste 27 Sudeste 0 -- -- 96
2020-01-07 09:00:00 9.4 20 Este 33 Este 0 -- -- 96
2020-01-07 08:00:00 9.3 15 Este 36 Sudeste 0 -- -- 98
2020-01-07 07:00:00 9.3 11 Sudeste 35 Este 0.2 -- -- 98
2020-01-07 06:00:00 9.5 10 Este 36 Nordeste 0.2 -- -- 96
2020-01-07 05:00:00 9 12 Este 36 Nordeste 0 -- -- 94
2020-01-07 04:00:00 9.1 8 Nordeste 27 Este 0 -- -- 97
2020-01-07 03:00:00 9.4 5 Noroeste 38 Noroeste 0 -- -- 99
2020-01-07 02:00:00 9.9 11 Norte 34 Norte 0 -- -- 100
2020-01-07 01:00:00 9.6 9 Norte 34 Nordeste 0 -- -- 99
2020-01-07 00:00:00 9.7 8 Sur 28 Norte 0 -- -- 100
2020-01-06 23:00:00 9.4 9 Sudoeste 48 Noroeste 0.2 -- -- 100
2020-01-06 22:00:00 9.9 14 Norte 40 Noroeste 0.8 -- -- 99
2020-01-06 21:00:00 10 13 Noroeste 48 Oeste 0 -- -- 99
2020-01-06 20:00:00 10.3 10 Sudoeste 50 Noroeste 2.8 -- -- 98
2020-01-06 19:00:00 10.5 16 Noroeste 43 Oeste 0 -- -- 97
2020-01-06 18:00:00 10.4 16 Norte 43 Noroeste 0 -- -- 94
2020-01-06 17:00:00 10.8 18 Noroeste 42 Noroeste 0 -- -- 92
2020-01-06 16:00:00 11.3 13 Noroeste 46 Nordeste 0 -- -- 86
2020-01-06 15:00:00 11.7 23 Noroeste 45 Oeste 0 -- -- 85
2020-01-06 14:00:00 12.7 12 Noroeste 45 Noroeste 0 -- -- 81
2020-01-06 13:00:00 12.4 9 Noroeste 38 Noroeste 0 -- -- 83
2020-01-06 12:00:00 12.4 8 Noroeste 31 Oeste 0 -- -- 84
2020-01-06 11:00:00 11.8 8 Oeste 33 Noroeste 0 -- -- 83
2020-01-06 10:00:00 10.7 8 Noroeste 36 Oeste 0 -- -- 94
2020-01-06 09:00:00 9.9 11 Norte 33 Noroeste 0 -- -- 98